Kensal, ND (58455)

5:00 AM CDT on July 06, 2015 (GMT -0500)
Thurlow Farms | | Change Station
CLOSE
Current Station
Personal Weather Station
Location: Carrington, ND
Elevation: 1535 ft
Nearby Weather Stations

Elev 1535 ft 47.43 °N, 98.84 °W | Updated 48 seconds ago

Mostly Cloudy
Mostly Cloudy
58.8 °F
Feels Like 58.8 °F
N
0.0
Wind Variable Wind from South
Gusts 5.0 mph

Today
High -- | Low -- °F
--% Chance of Precip.
Yesterday
High -- | Low -- °F
Precip. -- in
5:45 AM 9:33 PM
Waning Gibbous, 77% visible
Pressure 30.00 in
Visibility 2.0 miles
Clouds Overcast 2900 ft
Dew Point 54 °F
Humidity 85%
Rainfall 0.00 in
Snow Depth Not available.
UV 0 out of 12
Pollen 2.20 out of 12
Air Quality Not available.
Flu Activity Not available.
METAR KJMS 060956Z AUTO 36006KT 2SM BR OVC029 16/14 A3001 RMK AO2 SLP158 T01610139

More Conditions Fewer Conditions

Pressure 30.00 in
Visibility 2.0 miles
Clouds Overcast 2900 ft
Dew Point 54 °F
Humidity 85%
Rainfall 0.00 in
Snow Depth Not available.
UV 0 out of 12
Pollen 2.20 out of 12
Air Quality Not available.
Flu Activity Not available.
METAR KJMS 060956Z AUTO 36006KT 2SM BR OVC029 16/14 A3001 RMK AO2 SLP158 T01610139

More Conditions Fewer Conditions

10-Day Weather Forecast

×

Almanac

Astronomy

Jul. 06, 2015 Rise Set
Actual Time
Civil Twilight
Nautical Twilight
Astronomical Twilight
Moon
Length of Visible Light
Length of Day
Tomorrow will be .
, % of the Moon is Illuminated

Today's Extremes

State Highs State Lows

Community

WunderPhotos

Upload Photos

1,835,525 photos uploaded!

WunderBlogs® & News

Nearby

Air Quality

  Air Quality AQ Index Pollutant
Not available.

Snow Depth

Station Depth Elevation

Earthquake Activity

City Distance Mag. Time & Date
Minimum magnitude displayed is 2.5.

Coastal Water Temperatures

Place Temperature

Stations

Nearby Weather Stations

Station Location Temp. Windchill Dew Point Humidity Wind Precip. Elev Updated Type